Time;durP1;ratioP1;P1;durP2;ratioP2;P2;SDS_P1;SDS_P2;PMS_P1;PMS_P2;Temp;Humidity;BMP_temperature;BMP_pressure;BME280_temperature;BME280_humidity;BME280_pressure;Samples;Min_cycle;Max_cycle;Signal;HPM_P1;HPM_P2
2022/08/05 00:00:45;;;;;;;3.95;2.10;;;;;;;;;;5011170;28;20034;-84
2022/08/05 00:03:11;;;;;;;3.70;2.10;;;;;;;;;;5010299;28;20103;-83
2022/08/05 00:05:37;;;;;;;3.03;2.28;;;;;;;;;;5012254;28;20069;-83
2022/08/05 00:08:03;;;;;;;3.35;2.20;;;;;;;;;;5012381;28;20037;-83
2022/08/05 00:10:29;;;;;;;3.03;2.30;;;;;;;;;;5012069;28;20049;-84
2022/08/05 00:12:55;;;;;;;5.55;2.20;;;;;;;;;;5014623;28;20464;-84
2022/08/05 00:15:21;;;;;;;3.70;2.20;;;;;;;;;;5030727;28;20383;-83
2022/08/05 00:17:47;;;;;;;3.97;2.08;;;;;;;;;;5029492;28;20025;-84
2022/08/05 00:20:13;;;;;;;3.72;2.00;;;;;;;;;;5044785;28;20061;-84
2022/08/05 00:22:39;;;;;;;3.97;2.20;;;;;;;;;;5029957;28;20024;-83
2022/08/05 00:25:05;;;;;;;2.63;2.15;;;;;;;;;;5069935;28;20041;-84
2022/08/05 00:27:31;;;;;;;3.00;2.22;;;;;;;;;;5053628;28;20094;-84
2022/08/05 00:29:57;;;;;;;5.70;2.63;;;;;;;;;;5053835;28;20017;-84
2022/08/05 00:32:23;;;;;;;4.65;2.90;;;;;;;;;;5068164;28;20025;-84
2022/08/05 00:34:49;;;;;;;3.25;2.25;;;;;;;;;;5075610;28;20024;-84
2022/08/05 00:37:15;;;;;;;3.03;2.40;;;;;;;;;;5063807;28;20037;-84
2022/08/05 00:39:43;;;;;;;3.95;2.22;;;;;;;;;;5069507;28;20105;-84
2022/08/05 00:42:09;;;;;;;4.07;2.50;;;;;;;;;;5057577;28;20477;-84
2022/08/05 00:44:35;;;;;;;4.72;2.60;;;;;;;;;;5057369;28;20070;-84
2022/08/05 00:47:01;;;;;;;4.72;2.70;;;;;;;;;;5057410;28;20113;-83
2022/08/05 00:49:27;;;;;;;3.42;2.55;;;;;;;;;;5057229;28;20052;-84
2022/08/05 00:51:53;;;;;;;3.05;2.40;;;;;;;;;;5057537;28;20032;-83
2022/08/05 00:54:19;;;;;;;3.60;2.33;;;;;;;;;;5073515;28;20107;-84
2022/08/05 00:56:45;;;;;;;6.15;2.40;;;;;;;;;;5057562;28;20116;-84
2022/08/05 00:59:11;;;;;;;4.85;2.75;;;;;;;;;;5055827;28;20048;-84
2022/08/05 01:01:37;;;;;;;3.13;2.67;;;;;;;;;;5090428;28;20438;-84
2022/08/05 01:04:03;;;;;;;4.28;2.80;;;;;;;;;;5090506;28;20070;-83
2022/08/05 01:06:29;;;;;;;5.38;2.72;;;;;;;;;;5074734;28;20079;-84
2022/08/05 01:08:55;;;;;;;5.28;2.70;;;;;;;;;;5090741;28;20052;-84
2022/08/05 01:11:23;;;;;;;4.80;2.70;;;;;;;;;;5074916;28;20078;-83
2022/08/05 01:14:07;;;;;;;3.20;2.88;;;;;;;;;;5089778;28;20119;-84
2022/08/05 01:16:47;;;;;;;3.42;2.85;;;;;;;;;;5056842;28;20104;-85
2022/08/05 01:19:19;;;;;;;4.18;3.13;;;;;;;;;;5073809;28;20352;-83
2022/08/05 01:22:04;;;;;;;4.05;2.75;;;;;;;;;;5074742;28;20036;-84
2022/08/05 01:24:30;;;;;;;6.20;3.60;;;;;;;;;;5089470;28;20449;-84
2022/08/05 01:27:00;;;;;;;4.80;3.22;;;;;;;;;;5073869;28;20028;-83
2022/08/05 01:29:32;;;;;;;5.25;4.00;;;;;;;;;;5074940;28;20025;-84
2022/08/05 01:32:01;;;;;;;4.82;4.07;;;;;;;;;;5074613;28;20413;-84
2022/08/05 01:34:30;;;;;;;5.00;3.72;;;;;;;;;;5087045;28;20462;-84
2022/08/05 01:37:07;;;;;;;5.22;4.20;;;;;;;;;;5074505;28;20349;-84
2022/08/05 01:39:33;;;;;;;4.93;3.70;;;;;;;;;;5072086;28;20036;-84
2022/08/05 01:42:01;;;;;;;5.40;4.10;;;;;;;;;;5054770;28;20017;-84
2022/08/05 01:44:27;;;;;;;8.73;5.57;;;;;;;;;;5055591;28;20028;-83
2022/08/05 01:46:54;;;;;;;7.40;6.53;;;;;;;;;;5073663;28;20078;-84
2022/08/05 01:49:22;;;;;;;6.72;6.13;;;;;;;;;;5056274;28;20017;-84
2022/08/05 01:51:48;;;;;;;6.88;6.18;;;;;;;;;;5073251;28;20027;-84
2022/08/05 01:54:15;;;;;;;8.90;6.45;;;;;;;;;;5086037;28;20421;-83
2022/08/05 01:56:42;;;;;;;7.75;6.47;;;;;;;;;;5055980;28;20029;-83
2022/08/05 01:59:11;;;;;;;7.22;4.82;;;;;;;;;;5073938;28;20024;-83
2022/08/05 02:01:37;;;;;;;8.27;4.65;;;;;;;;;;5075300;28;20124;-84
2022/08/05 02:04:04;;;;;;;8.57;5.55;;;;;;;;;;5056051;28;20020;-83
2022/08/05 02:06:30;;;;;;;8.77;5.78;;;;;;;;;;5062539;28;20028;-84
2022/08/05 02:08:57;;;;;;;7.88;5.20;;;;;;;;;;5055009;28;20387;-84
2022/08/05 02:11:23;;;;;;;5.13;4.32;;;;;;;;;;5073653;28;20024;-83
2022/08/05 02:14:08;;;;;;;4.68;4.25;;;;;;;;;;5050428;28;20085;-84
2022/08/05 02:16:38;;;;;;;5.70;4.78;;;;;;;;;;5035059;28;20459;-84
2022/08/05 02:19:18;;;;;;;4.95;4.40;;;;;;;;;;5044448;28;20048;-83
2022/08/05 02:21:47;;;;;;;5.13;4.05;;;;;;;;;;5073680;28;20025;-83
2022/08/05 02:24:16;;;;;;;5.20;3.90;;;;;;;;;;5072692;28;20047;-83
2022/08/05 02:26:46;;;;;;;4.57;3.92;;;;;;;;;;5087306;28;20036;-83
2022/08/05 02:29:12;;;;;;;3.95;3.40;;;;;;;;;;5088786;28;20382;-83
2022/08/05 02:31:39;;;;;;;6.90;3.78;;;;;;;;;;5073351;28;20028;-84
2022/08/05 02:34:12;;;;;;;4.22;3.33;;;;;;;;;;5080838;28;20021;-83
2022/08/05 02:36:48;;;;;;;4.45;3.92;;;;;;;;;;5052216;28;20024;-83
2022/08/05 02:39:15;;;;;;;4.45;3.83;;;;;;;;;;5053085;28;20024;-84
2022/08/05 02:41:42;;;;;;;5.13;3.75;;;;;;;;;;5072160;28;20471;-83
2022/08/05 02:44:09;;;;;;;5.20;3.63;;;;;;;;;;5087982;28;20074;-84
2022/08/05 02:46:36;;;;;;;4.07;3.67;;;;;;;;;;5088510;28;20098;-83
2022/08/05 02:49:02;;;;;;;4.22;3.83;;;;;;;;;;5088232;28;20020;-84
2022/08/05 02:51:28;;;;;;;4.55;4.00;;;;;;;;;;5088665;28;20028;-84
2022/08/05 02:53:55;;;;;;;3.90;3.45;;;;;;;;;;5085272;28;20020;-83
2022/08/05 02:56:21;;;;;;;4.40;4.00;;;;;;;;;;5073013;28;20094;-83
2022/08/05 02:58:47;;;;;;;5.18;4.68;;;;;;;;;;5070706;28;20040;-83
2022/08/05 03:01:17;;;;;;;5.38;4.93;;;;;;;;;;5076507;28;20024;-84
2022/08/05 03:03:43;;;;;;;6.47;5.68;;;;;;;;;;5081183;28;20027;-83
2022/08/05 03:06:10;;;;;;;6.13;5.65;;;;;;;;;;5072451;28;20064;-83
2022/08/05 03:08:37;;;;;;;6.63;6.13;;;;;;;;;;5072663;28;20086;-84
2022/08/05 03:11:03;;;;;;;7.13;6.53;;;;;;;;;;5072502;28;20025;-84
2022/08/05 03:13:29;;;;;;;8.10;7.40;;;;;;;;;;5054558;28;20043;-84
2022/08/05 03:15:55;;;;;;;7.82;7.13;;;;;;;;;;5054669;28;20027;-84
2022/08/05 03:18:21;;;;;;;7.75;7.10;;;;;;;;;;5054636;28;20028;-83
2022/08/05 03:20:47;;;;;;;7.60;6.90;;;;;;;;;;5068317;28;20024;-84
2022/08/05 03:23:14;;;;;;;8.27;7.47;;;;;;;;;;5059997;28;20048;-84
2022/08/05 03:25:40;;;;;;;8.35;7.65;;;;;;;;;;5052750;28;20028;-84
2022/08/05 03:28:07;;;;;;;7.15;6.50;;;;;;;;;;5053155;28;20492;-84
2022/08/05 03:30:33;;;;;;;6.85;6.25;;;;;;;;;;5086990;28;20032;-84
2022/08/05 03:33:00;;;;;;;6.90;6.30;;;;;;;;;;5063653;28;20052;-83
2022/08/05 03:35:31;;;;;;;7.15;6.47;;;;;;;;;;5051920;28;20031;-83
2022/08/05 03:37:58;;;;;;;7.20;6.60;;;;;;;;;;5050437;28;20025;-84
2022/08/05 03:40:24;;;;;;;7.55;6.93;;;;;;;;;;5069708;28;20027;-84
2022/08/05 03:42:50;;;;;;;7.45;6.75;;;;;;;;;;5071598;28;20025;-84
2022/08/05 03:45:15;;;;;;;7.90;6.82;;;;;;;;;;5071696;28;20031;-83
2022/08/05 03:47:41;;;;;;;6.72;6.13;;;;;;;;;;5086929;28;20040;-83
2022/08/05 03:50:08;;;;;;;6.32;5.72;;;;;;;;;;5072325;28;20091;-84
2022/08/05 03:52:37;;;;;;;6.32;5.75;;;;;;;;;;5087751;28;20489;-84
2022/08/05 03:55:06;;;;;;;6.60;5.95;;;;;;;;;;5085929;28;20024;-84
2022/08/05 03:57:32;;;;;;;7.38;6.70;;;;;;;;;;5071922;28;20020;-83
2022/08/05 04:00:08;;;;;;;7.32;6.57;;;;;;;;;;5039863;28;20056;-84
2022/08/05 04:02:36;;;;;;;6.68;6.07;;;;;;;;;;5067446;28;20386;-84
2022/08/05 04:05:02;;;;;;;6.63;5.80;;;;;;;;;;5051561;28;20021;-83
2022/08/05 04:07:29;;;;;;;6.85;6.25;;;;;;;;;;5070555;28;20047;-84
2022/08/05 04:09:55;;;;;;;6.47;5.88;;;;;;;;;;5071524;28;20021;-83
2022/08/05 04:12:22;;;;;;;6.22;5.63;;;;;;;;;;5071593;28;20082;-84
2022/08/05 04:14:48;;;;;;;6.90;6.20;;;;;;;;;;5084005;28;20108;-85
2022/08/05 04:17:14;;;;;;;7.95;7.18;;;;;;;;;;5058145;28;20033;-84
2022/08/05 04:19:44;;;;;;;10.32;8.52;;;;;;;;;;5047758;28;20075;-84
2022/08/05 04:22:10;;;;;;;9.48;8.38;;;;;;;;;;5055817;28;20044;-84
2022/08/05 04:24:40;;;;;;;11.88;10.05;;;;;;;;;;5054724;28;20167;-84
2022/08/05 04:27:06;;;;;;;10.63;9.23;;;;;;;;;;5065366;28;20200;-84
2022/08/05 04:29:35;;;;;;;12.57;10.75;;;;;;;;;;5075637;28;20051;-84
2022/08/05 04:32:04;;;;;;;15.70;13.05;;;;;;;;;;5075545;28;20458;-84
2022/08/05 04:34:30;;;;;;;16.40;13.15;;;;;;;;;;5057452;28;20164;-84
2022/08/05 04:36:55;;;;;;;17.25;14.27;;;;;;;;;;5075620;28;20463;-84
2022/08/05 04:39:21;;;;;;;16.75;14.07;;;;;;;;;;5057485;28;20024;-83
2022/08/05 04:41:48;;;;;;;16.27;13.77;;;;;;;;;;5075415;28;20020;-83
2022/08/05 04:44:14;;;;;;;18.40;13.90;;;;;;;;;;5075229;28;20032;-84
2022/08/05 04:46:40;;;;;;;16.98;13.95;;;;;;;;;;5057316;28;20044;-84
2022/08/05 04:49:06;;;;;;;18.35;14.10;;;;;;;;;;5075225;28;20364;-83
2022/08/05 04:51:32;;;;;;;15.48;13.23;;;;;;;;;;5068301;28;20111;-84
2022/08/05 04:53:59;;;;;;;15.93;13.45;;;;;;;;;;5057363;28;20451;-84
2022/08/05 04:56:25;;;;;;;15.25;13.30;;;;;;;;;;5073515;28;20386;-84
2022/08/05 04:58:51;;;;;;;18.33;14.10;;;;;;;;;;5056264;28;20019;-84
2022/08/05 05:01:17;;;;;;;16.70;12.65;;;;;;;;;;5073726;28;20482;-84
2022/08/05 05:03:43;;;;;;;16.85;13.45;;;;;;;;;;5056237;28;20058;-84
2022/08/05 05:06:09;;;;;;;16.00;13.43;;;;;;;;;;5055941;28;20384;-84
2022/08/05 05:08:36;;;;;;;16.58;13.60;;;;;;;;;;5074315;28;20025;-85
2022/08/05 05:11:02;;;;;;;17.67;13.50;;;;;;;;;;5057111;28;20024;-84
2022/08/05 05:13:28;;;;;;;14.77;12.60;;;;;;;;;;5056933;28;20058;-84
2022/08/05 05:15:54;;;;;;;16.48;13.68;;;;;;;;;;5074060;28;20020;-84
2022/08/05 05:18:20;;;;;;;21.15;14.15;;;;;;;;;;5056309;28;20031;-83
2022/08/05 05:20:46;;;;;;;15.70;13.80;;;;;;;;;;5072730;28;20020;-83
2022/08/05 05:23:12;;;;;;;17.48;14.50;;;;;;;;;;5074002;28;20055;-84
2022/08/05 05:25:42;;;;;;;17.65;14.70;;;;;;;;;;5055420;28;20029;-83
2022/08/05 05:28:09;;;;;;;19.05;15.13;;;;;;;;;;5056783;28;20390;-84
2022/08/05 05:30:35;;;;;;;18.80;14.60;;;;;;;;;;5074629;28;20017;-84
2022/08/05 05:33:02;;;;;;;17.20;13.88;;;;;;;;;;5056668;28;20226;-83
2022/08/05 05:35:28;;;;;;;17.10;13.90;;;;;;;;;;5073725;28;20021;-84
2022/08/05 05:38:02;;;;;;;17.08;13.55;;;;;;;;;;5056313;28;20033;-83
2022/08/05 05:40:28;;;;;;;15.93;13.40;;;;;;;;;;5054535;28;20116;-83
2022/08/05 05:42:54;;;;;;;16.67;13.52;;;;;;;;;;5055394;28;20422;-84
2022/08/05 05:45:20;;;;;;;15.45;13.50;;;;;;;;;;5073436;28;20028;-84
2022/08/05 05:47:47;;;;;;;15.57;13.48;;;;;;;;;;5073933;28;20474;-84
2022/08/05 05:50:14;;;;;;;18.10;13.57;;;;;;;;;;5056262;28;20017;-84
2022/08/05 05:52:43;;;;;;;17.00;13.75;;;;;;;;;;5055107;28;20021;-84
2022/08/05 05:55:11;;;;;;;17.02;12.63;;;;;;;;;;5074122;28;20081;-85
2022/08/05 05:57:37;;;;;;;15.05;12.02;;;;;;;;;;5073988;28;20082;-84
2022/08/05 06:00:08;;;;;;;17.23;12.88;;;;;;;;;;5048801;28;20021;-84
2022/08/05 06:02:34;;;;;;;17.02;13.15;;;;;;;;;;5055956;28;20029;-84
2022/08/05 06:05:00;;;;;;;18.27;13.82;;;;;;;;;;5055951;28;20028;-84
2022/08/05 06:07:26;;;;;;;17.25;14.40;;;;;;;;;;5073843;28;20028;-84
2022/08/05 06:09:52;;;;;;;15.80;13.35;;;;;;;;;;5055473;28;20470;-83
2022/08/05 06:12:18;;;;;;;17.35;14.05;;;;;;;;;;5089137;28;20162;-84
2022/08/05 06:14:44;;;;;;;16.40;14.10;;;;;;;;;;5055962;28;20024;-84
2022/08/05 06:17:10;;;;;;;17.40;13.57;;;;;;;;;;5057207;28;20021;-84
2022/08/05 06:19:36;;;;;;;17.92;13.75;;;;;;;;;;5043795;28;20074;-83
2022/08/05 06:22:03;;;;;;;16.92;14.18;;;;;;;;;;5054752;28;20032;-83
2022/08/05 06:24:28;;;;;;;15.88;13.57;;;;;;;;;;5050860;28;20142;-83
2022/08/05 06:26:54;;;;;;;15.70;13.98;;;;;;;;;;5051399;28;20129;-84
2022/08/05 06:29:21;;;;;;;17.65;14.55;;;;;;;;;;5053010;28;20021;-84
2022/08/05 06:31:47;;;;;;;16.60;13.57;;;;;;;;;;5053045;28;20029;-84
2022/08/05 06:34:13;;;;;;;18.88;14.95;;;;;;;;;;5051569;28;20105;-84
2022/08/05 06:36:39;;;;;;;18.58;14.13;;;;;;;;;;5055816;28;20036;-84
2022/08/05 06:39:05;;;;;;;15.65;13.93;;;;;;;;;;5062908;28;20025;-85
2022/08/05 06:41:31;;;;;;;16.95;14.18;;;;;;;;;;5069085;28;20023;-84
2022/08/05 06:43:57;;;;;;;15.65;13.93;;;;;;;;;;5049351;28;20033;-84
2022/08/05 06:46:23;;;;;;;17.92;14.77;;;;;;;;;;5049461;28;20032;-84
2022/08/05 06:48:49;;;;;;;16.65;14.90;;;;;;;;;;5049553;28;20452;-85
2022/08/05 06:51:15;;;;;;;18.70;15.40;;;;;;;;;;5053196;28;20029;-84
2022/08/05 06:53:41;;;;;;;19.30;15.45;;;;;;;;;;5050959;28;20175;-84
2022/08/05 06:56:07;;;;;;;17.40;14.75;;;;;;;;;;5051785;28;20029;-84
2022/08/05 06:58:33;;;;;;;16.02;13.98;;;;;;;;;;5050865;28;20029;-85
2022/08/05 07:01:00;;;;;;;16.23;14.45;;;;;;;;;;5043500;28;20174;-84
2022/08/05 07:03:27;;;;;;;17.58;14.60;;;;;;;;;;5045291;28;20123;-85
2022/08/05 07:05:53;;;;;;;14.65;12.10;;;;;;;;;;5050628;28;20020;-84
2022/08/05 07:08:21;;;;;;;10.68;9.57;;;;;;;;;;5049951;28;20041;-84
2022/08/05 07:10:47;;;;;;;10.43;9.43;;;;;;;;;;5077102;28;20028;-84
2022/08/05 07:18:42;;;;;;;8.32;7.22;;;;;;;;;;5051466;28;20513;-85
2022/08/05 07:21:07;;;;;;;7.45;6.65;;;;;;;;;;5050420;28;20033;-84
2022/08/05 07:23:34;;;;;;;6.88;6.18;;;;;;;;;;5045221;28;20407;-84
2022/08/05 07:26:00;;;;;;;6.32;5.72;;;;;;;;;;5030291;28;20021;-85
2022/08/05 07:28:26;;;;;;;5.65;5.07;;;;;;;;;;5051699;28;20564;-85
2022/08/05 07:30:52;;;;;;;5.22;4.70;;;;;;;;;;5029783;28;20029;-84
2022/08/05 07:33:20;;;;;;;5.63;5.03;;;;;;;;;;5022656;28;20091;-85
2022/08/05 07:35:46;;;;;;;7.32;5.20;;;;;;;;;;5028672;28;20055;-84
2022/08/05 07:38:13;;;;;;;5.85;4.82;;;;;;;;;;5021324;28;20025;-84
2022/08/05 07:40:39;;;;;;;5.63;4.30;;;;;;;;;;5029388;28;20029;-85
2022/08/05 07:43:04;;;;;;;5.05;4.13;;;;;;;;;;5015721;28;20029;-85
2022/08/05 07:45:31;;;;;;;4.00;3.60;;;;;;;;;;5028751;28;20037;-84
2022/08/05 07:47:58;;;;;;;4.10;3.70;;;;;;;;;;5022845;28;20506;-84
2022/08/05 07:50:24;;;;;;;4.38;3.67;;;;;;;;;;5026747;28;20026;-84
2022/08/05 07:52:50;;;;;;;4.18;3.10;;;;;;;;;;5011145;28;20022;-84
2022/08/05 07:55:16;;;;;;;5.00;3.33;;;;;;;;;;5026734;28;20046;-85
2022/08/05 07:57:42;;;;;;;3.45;2.97;;;;;;;;;;5011238;28;20029;-84
2022/08/05 08:00:09;;;;;;;3.47;2.92;;;;;;;;;;5023606;28;20032;-84
2022/08/05 08:02:35;;;;;;;4.55;2.78;;;;;;;;;;5030204;28;20025;-84
2022/08/05 08:05:01;;;;;;;4.53;2.78;;;;;;;;;;5029633;28;20103;-84
2022/08/05 08:07:27;;;;;;;3.03;2.40;;;;;;;;;;5030809;28;20129;-84
2022/08/05 08:09:53;;;;;;;3.83;2.38;;;;;;;;;;5031200;28;20100;-84
2022/08/05 08:12:20;;;;;;;4.97;2.28;;;;;;;;;;5032051;28;20080;-84
2022/08/05 08:14:45;;;;;;;4.10;2.30;;;;;;;;;;5030969;28;20025;-84
2022/08/05 08:17:11;;;;;;;3.30;2.30;;;;;;;;;;5031986;28;20091;-84
2022/08/05 08:19:38;;;;;;;3.78;2.67;;;;;;;;;;5024870;28;20120;-84
2022/08/05 08:22:04;;;;;;;2.97;2.40;;;;;;;;;;5012201;28;20027;-85
2022/08/05 08:24:30;;;;;;;2.50;2.25;;;;;;;;;;5038942;28;20037;-84
2022/08/05 08:26:57;;;;;;;3.50;2.33;;;;;;;;;;5046613;28;20029;-84
2022/08/05 08:29:23;;;;;;;3.03;2.58;;;;;;;;;;5047210;28;20022;-84
2022/08/05 08:31:49;;;;;;;3.67;2.42;;;;;;;;;;5032074;28;20388;-85
2022/08/05 08:34:16;;;;;;;4.63;2.53;;;;;;;;;;5050874;28;20463;-84
2022/08/05 08:36:42;;;;;;;3.33;2.10;;;;;;;;;;5051385;28;20475;-85
2022/08/05 08:39:08;;;;;;;5.72;2.65;;;;;;;;;;5050742;28;20029;-85
2022/08/05 08:41:36;;;;;;;3.22;2.38;;;;;;;;;;5046733;28;20018;-84
2022/08/05 08:44:02;;;;;;;4.35;2.67;;;;;;;;;;5047212;28;20013;-84
2022/08/05 08:46:30;;;;;;;5.35;2.55;;;;;;;;;;5050445;28;20134;-85
2022/08/05 08:48:57;;;;;;;2.20;1.90;;;;;;;;;;5050384;28;20414;-84
2022/08/05 08:51:23;;;;;;;5.28;2.60;;;;;;;;;;5050399;28;20025;-85
2022/08/05 08:53:49;;;;;;;3.05;2.35;;;;;;;;;;5055744;28;20037;-85
2022/08/05 08:56:16;;;;;;;4.28;2.60;;;;;;;;;;5037890;28;20037;-84
2022/08/05 08:58:42;;;;;;;4.15;2.72;;;;;;;;;;5043615;28;20434;-84
2022/08/05 09:01:09;;;;;;;3.58;2.50;;;;;;;;;;5053735;28;20353;-85
2022/08/05 09:03:36;;;;;;;3.33;2.45;;;;;;;;;;5054052;28;20028;-85
2022/08/05 09:06:01;;;;;;;6.13;2.50;;;;;;;;;;5053149;28;20020;-84
2022/08/05 09:08:27;;;;;;;5.38;2.60;;;;;;;;;;5051178;28;20109;-84
2022/08/05 09:10:54;;;;;;;4.70;2.50;;;;;;;;;;5054253;28;20020;-84
2022/08/05 09:13:20;;;;;;;4.63;2.38;;;;;;;;;;5052899;28;20052;-84
2022/08/05 09:15:46;;;;;;;3.22;2.40;;;;;;;;;;5053478;28;20044;-85
2022/08/05 09:18:12;;;;;;;3.35;2.38;;;;;;;;;;5052016;28;20104;-84
2022/08/05 09:20:40;;;;;;;3.65;2.40;;;;;;;;;;5054865;28;20036;-85
2022/08/05 09:23:11;;;;;;;2.95;2.00;;;;;;;;;;5053899;28;20017;-84
2022/08/05 09:25:38;;;;;;;4.30;2.40;;;;;;;;;;5056284;28;20150;-85
2022/08/05 09:28:11;;;;;;;3.53;2.42;;;;;;;;;;5055009;28;20036;-85
2022/08/05 09:30:37;;;;;;;4.95;2.58;;;;;;;;;;5057007;28;20486;-85
2022/08/05 09:33:03;;;;;;;3.80;2.40;;;;;;;;;;5056158;28;20036;-86
2022/08/05 09:35:29;;;;;;;4.70;2.20;;;;;;;;;;5074320;28;20056;-87
2022/08/05 09:37:57;;;;;;;3.67;2.13;;;;;;;;;;5056850;28;20025;-86
2022/08/05 09:40:31;;;;;;;4.45;2.38;;;;;;;;;;5056287;28;20078;-85
2022/08/05 09:42:57;;;;;;;3.45;2.40;;;;;;;;;;5089444;28;20393;-86
2022/08/05 09:45:33;;;;;;;4.95;2.80;;;;;;;;;;5089038;28;20016;-86
2022/08/05 09:47:59;;;;;;;5.07;2.50;;;;;;;;;;5073448;28;20505;-87
2022/08/05 09:50:35;;;;;;;3.53;2.20;;;;;;;;;;5056412;28;20021;-86
2022/08/05 09:53:01;;;;;;;3.47;2.60;;;;;;;;;;5052788;28;20165;-85
2022/08/05 09:55:27;;;;;;;3.67;2.65;;;;;;;;;;5066947;28;20095;-86
2022/08/05 09:57:53;;;;;;;5.30;2.72;;;;;;;;;;5055789;28;20035;-86
2022/08/05 10:00:23;;;;;;;3.28;2.53;;;;;;;;;;5043744;28;20025;-87
2022/08/05 10:02:53;;;;;;;4.88;2.70;;;;;;;;;;5067950;28;20434;-86
2022/08/05 10:05:20;;;;;;;4.25;2.75;;;;;;;;;;5067652;28;20467;-87
2022/08/05 10:07:49;;;;;;;4.25;2.80;;;;;;;;;;5068367;28;20035;-86
2022/08/05 10:10:16;;;;;;;4.05;2.90;;;;;;;;;;5082656;28;20108;-86
2022/08/05 10:12:42;;;;;;;4.05;2.90;;;;;;;;;;5073921;28;20031;-87
2022/08/05 10:15:24;;;;;;;3.97;3.00;;;;;;;;;;5074037;28;20128;-86
2022/08/05 10:18:09;;;;;;;3.60;3.30;;;;;;;;;;5064686;28;20027;-86
2022/08/05 10:20:36;;;;;;;6.00;3.65;;;;;;;;;;5042445;28;20055;-87
2022/08/05 10:23:03;;;;;;;6.05;3.85;;;;;;;;;;5073689;28;20029;-86
2022/08/05 10:25:29;;;;;;;5.32;3.55;;;;;;;;;;5073739;28;20021;-87
2022/08/05 10:27:54;;;;;;;5.10;3.58;;;;;;;;;;5055745;28;20444;-87
2022/08/05 10:30:21;;;;;;;4.03;3.10;;;;;;;;;;5055833;28;20112;-87
2022/08/05 10:32:48;;;;;;;3.15;2.85;;;;;;;;;;5055687;28;20024;-87
2022/08/05 10:35:14;;;;;;;5.55;3.55;;;;;;;;;;5073636;28;20021;-87
2022/08/05 10:37:41;;;;;;;4.85;3.60;;;;;;;;;;5055512;28;20029;-87
2022/08/05 10:40:14;;;;;;;5.28;3.83;;;;;;;;;;5071702;28;20066;-87
2022/08/05 10:42:43;;;;;;;5.68;3.90;;;;;;;;;;5054153;28;20020;-87
2022/08/05 10:45:11;;;;;;;5.20;3.50;;;;;;;;;;5054032;28;20485;-87
2022/08/05 10:47:43;;;;;;;7.20;3.40;;;;;;;;;;5054990;28;20032;-86
2022/08/05 10:50:12;;;;;;;5.20;3.47;;;;;;;;;;5054827;28;20069;-86
2022/08/05 10:52:42;;;;;;;6.10;3.70;;;;;;;;;;5055036;28;20035;-86
2022/08/05 10:55:10;;;;;;;6.57;4.00;;;;;;;;;;5049588;28;20070;-88
2022/08/05 10:57:40;;;;;;;4.67;3.53;;;;;;;;;;5068438;28;20032;-89
2022/08/05 11:00:28;;;;;;;5.45;3.53;;;;;;;;;;5071380;28;20028;-88
2022/08/05 11:03:03;;;;;;;4.18;3.53;;;;;;;;;;5071128;28;20021;-89
2022/08/05 11:05:29;;;;;;;5.43;3.90;;;;;;;;;;5054016;28;20387;-88
2022/08/05 11:07:59;;;;;;;5.82;3.70;;;;;;;;;;5055123;28;20394;-88
2022/08/05 11:10:26;;;;;;;5.15;3.58;;;;;;;;;;5055367;28;20040;-88
2022/08/05 11:12:52;;;;;;;5.38;3.45;;;;;;;;;;5072844;28;20091;-88
2022/08/05 11:15:33;;;;;;;4.28;3.60;;;;;;;;;;5054936;28;20116;-88
2022/08/05 11:18:09;;;;;;;4.72;3.20;;;;;;;;;;5052504;28;20102;-88
2022/08/05 11:20:46;;;;;;;5.55;3.05;;;;;;;;;;5054638;28;20028;-87
2022/08/05 11:23:44;;;;;;;4.15;2.70;;;;;;;;;;5088067;28;20063;-88
2022/08/05 11:26:11;;;;;;;5.25;3.00;;;;;;;;;;5016997;28;20040;-88
2022/08/05 11:28:38;;;;;;;3.33;2.90;;;;;;;;;;5085551;28;20020;-87
2022/08/05 11:31:04;;;;;;;4.70;2.78;;;;;;;;;;5088241;28;20027;-87
2022/08/05 11:33:35;;;;;;;6.00;3.33;;;;;;;;;;5054987;28;20024;-89
2022/08/05 11:36:01;;;;;;;6.65;3.38;;;;;;;;;;5070327;28;20032;-89
2022/08/05 11:38:42;;;;;;;4.18;2.53;;;;;;;;;;5072617;28;20037;-89
2022/08/05 11:41:20;;;;;;;5.35;3.60;;;;;;;;;;5083839;28;20017;-88
2022/08/05 11:43:59;;;;;;;5.77;3.03;;;;;;;;;;5062311;28;20171;-89
2022/08/05 11:46:25;;;;;;;4.00;3.00;;;;;;;;;;5051349;28;20033;-88
2022/08/05 11:48:52;;;;;;;5.65;3.10;;;;;;;;;;5066055;28;20521;-88
2022/08/05 11:51:18;;;;;;;2.63;2.35;;;;;;;;;;5054246;28;20486;-88
2022/08/05 11:53:44;;;;;;;5.50;2.95;;;;;;;;;;5071500;28;20055;-87
2022/08/05 11:56:10;;;;;;;3.35;2.53;;;;;;;;;;5068211;28;20024;-88
2022/08/05 11:58:40;;;;;;;4.10;3.28;;;;;;;;;;5053815;28;20035;-88
2022/08/05 12:01:06;;;;;;;5.28;2.70;;;;;;;;;;5087495;28;20024;-81
2022/08/05 12:03:51;;;;;;;4.80;2.80;;;;;;;;;;5081683;28;20025;-82
2022/08/05 12:06:19;;;;;;;4.60;3.15;;;;;;;;;;5083423;28;20048;-81
2022/08/05 12:08:46;;;;;;;4.00;3.15;;;;;;;;;;5057780;28;20107;-81
2022/08/05 12:11:16;;;;;;;3.90;2.78;;;;;;;;;;5085753;28;20592;-80
2022/08/05 12:13:52;;;;;;;3.60;3.30;;;;;;;;;;5087005;28;20025;-81
2022/08/05 12:16:18;;;;;;;4.20;2.63;;;;;;;;;;5071785;28;20048;-81
2022/08/05 12:18:44;;;;;;;6.90;3.42;;;;;;;;;;5087533;28;20027;-84
2022/08/05 12:21:15;;;;;;;5.53;3.00;;;;;;;;;;5083481;28;20017;-80
2022/08/05 12:23:51;;;;;;;4.80;3.13;;;;;;;;;;5085738;28;20040;-82
2022/08/05 12:26:17;;;;;;;4.72;2.63;;;;;;;;;;5069063;28;20033;-81
2022/08/05 12:28:43;;;;;;;6.07;3.40;;;;;;;;;;5090559;28;20652;-80
2022/08/05 12:31:10;;;;;;;4.40;3.45;;;;;;;;;;5075367;28;20027;-81
2022/08/05 12:33:36;;;;;;;4.45;3.17;;;;;;;;;;5074891;28;20028;-81
2022/08/05 12:36:03;;;;;;;4.30;3.13;;;;;;;;;;5087665;28;20155;-80
2022/08/05 12:38:29;;;;;;;3.58;2.40;;;;;;;;;;5090588;28;20035;-80
2022/08/05 12:40:56;;;;;;;4.32;3.08;;;;;;;;;;5083572;28;20028;-81
2022/08/05 12:43:22;;;;;;;5.57;2.60;;;;;;;;;;5054043;28;20144;-82
2022/08/05 12:45:54;;;;;;;2.42;1.88;;;;;;;;;;5052718;28;20123;-80
2022/08/05 12:48:21;;;;;;;3.47;3.10;;;;;;;;;;5061474;28;20033;-81
2022/08/05 12:51:06;;;;;;;3.65;1.90;;;;;;;;;;5075074;28;20025;-80
2022/08/05 12:53:32;;;;;;;3.03;2.22;;;;;;;;;;5089146;28;20119;-80
2022/08/05 12:55:58;;;;;;;2.28;2.03;;;;;;;;;;5073430;28;20047;-80
2022/08/05 12:58:24;;;;;;;2.65;1.63;;;;;;;;;;5074882;28;20036;-81
2022/08/05 13:00:53;;;;;;;4.47;2.20;;;;;;;;;;5073246;28;20050;-80
2022/08/05 13:03:19;;;;;;;3.97;2.75;;;;;;;;;;5087937;28;20028;-81
2022/08/05 13:05:47;;;;;;;4.25;3.22;;;;;;;;;;5056489;28;20024;-81
2022/08/05 13:08:16;;;;;;;6.37;3.60;;;;;;;;;;5090961;28;20066;-81
2022/08/05 13:10:42;;;;;;;2.50;1.52;;;;;;;;;;5047927;28;20677;-81
2022/08/05 13:13:09;;;;;;;5.10;2.90;;;;;;;;;;5073249;28;20028;-81
2022/08/05 13:15:35;;;;;;;4.10;2.40;;;;;;;;;;5073970;28;20024;-81
2022/08/05 13:18:01;;;;;;;3.08;2.30;;;;;;;;;;5088255;28;20503;-80
2022/08/05 13:20:34;;;;;;;3.33;2.33;;;;;;;;;;5087995;28;20070;-81
2022/08/05 13:23:00;;;;;;;4.18;3.08;;;;;;;;;;5061885;28;20070;-80
2022/08/05 13:25:26;;;;;;;5.03;3.28;;;;;;;;;;5072415;28;20549;-80
2022/08/05 13:27:53;;;;;;;4.80;3.47;;;;;;;;;;5088077;28;20493;-80
2022/08/05 13:30:23;;;;;;;5.50;3.55;;;;;;;;;;5083466;28;20069;-81
2022/08/05 13:32:49;;;;;;;4.38;2.88;;;;;;;;;;5055368;28;20036;-80
2022/08/05 13:35:15;;;;;;;4.05;2.60;;;;;;;;;;5090414;28;20019;-80
2022/08/05 13:37:41;;;;;;;6.30;3.08;;;;;;;;;;5071989;28;20024;-81
2022/08/05 13:40:08;;;;;;;3.80;2.97;;;;;;;;;;5064736;28;20364;-82
2022/08/05 13:42:34;;;;;;;5.55;3.13;;;;;;;;;;5072521;28;20029;-82
2022/08/05 13:45:00;;;;;;;4.57;2.83;;;;;;;;;;5078693;28;20021;-80
2022/08/05 13:47:26;;;;;;;5.28;2.90;;;;;;;;;;5073329;28;20382;-81
2022/08/05 13:49:53;;;;;;;4.03;2.58;;;;;;;;;;5070314;28;20025;-81
2022/08/05 13:52:20;;;;;;;6.15;2.58;;;;;;;;;;5073231;28;20016;-81
2022/08/05 13:54:46;;;;;;;2.67;1.70;;;;;;;;;;5073765;28;20517;-81
2022/08/05 13:57:12;;;;;;;4.40;2.25;;;;;;;;;;5055187;28;20446;-82
2022/08/05 13:59:39;;;;;;;2.92;1.88;;;;;;;;;;5054365;28;20497;-81
2022/08/05 14:02:06;;;;;;;3.97;2.28;;;;;;;;;;5071676;28;20017;-82
2022/08/05 14:07:26;;;;;;;4.65;2.08;;;;;;;;;;5072917;28;20119;-81
2022/08/05 14:09:52;;;;;;;2.92;2.00;;;;;;;;;;5054782;28;20019;-82
2022/08/05 14:12:18;;;;;;;2.67;1.60;;;;;;;;;;5056579;28;20032;-82
2022/08/05 14:14:44;;;;;;;3.50;1.70;;;;;;;;;;5060109;28;20017;-81
2022/08/05 14:17:10;;;;;;;2.33;2.08;;;;;;;;;;5072200;28;20020;-81
2022/08/05 14:19:36;;;;;;;3.03;1.80;;;;;;;;;;5078606;28;20039;-81
2022/08/05 14:22:02;;;;;;;3.00;1.80;;;;;;;;;;5072092;28;20024;-81
2022/08/05 14:24:28;;;;;;;2.22;1.40;;;;;;;;;;5054148;28;20041;-82
2022/08/05 14:26:54;;;;;;;3.22;1.55;;;;;;;;;;5072164;28;20108;-81
2022/08/05 14:29:20;;;;;;;2.78;1.77;;;;;;;;;;5065560;28;20025;-82
2022/08/05 14:31:46;;;;;;;4.53;1.65;;;;;;;;;;5053948;28;20528;-82
2022/08/05 14:34:12;;;;;;;3.00;1.90;;;;;;;;;;5068080;28;20095;-74
2022/08/05 14:36:39;;;;;;;2.60;1.40;;;;;;;;;;5070298;28;20440;-74
2022/08/05 14:39:05;;;;;;;1.95;1.00;;;;;;;;;;5051258;28;20502;-73
2022/08/05 14:41:34;;;;;;;2.75;1.30;;;;;;;;;;5085751;28;20040;-73
2022/08/05 14:44:00;;;;;;;2.15;1.52;;;;;;;;;;5072681;28;20039;-73
2022/08/05 14:46:26;;;;;;;3.38;1.60;;;;;;;;;;5072529;28;20033;-73
2022/08/05 14:48:52;;;;;;;2.83;1.83;;;;;;;;;;5054909;28;20028;-73